Milton, FL (32570)

12:54 AM CST on December 06, 2016 (GMT -0600)
Whiting Field Naval Air Station (North) | | Change Station

Elev 200 ft 30.73 °N, 87.02 °W | Updated 7 minutes ago

Light Rain
Light Rain Mist
61 °F
Feels Like 61 °F
N
0
Wind Variable Wind from North

Today
High -- | Low -- °F
--% Chance of Precip.
Yesterday
High -- | Low -- °F
Precip. -- in
Pressure 29.68 in
Visibility 1.0 miles
Clouds
Dew Point 61 °F
Humidity 100%
Rainfall 0.00 in
Snow Depth Not available.
6:32 AM 4:46 PM
Waxing Crescent, 39% visible
SPECI KNSE 060647Z AUTO 00000KT 1SM -RA BR VV002 16/16 A2968 RMK AO2 RAB43 T01610161 PNO $
Pressure 29.68 in
Visibility 1.0 miles
Clouds
Dew Point 61 °F
Humidity 100%
Rainfall 0.00 in
Snow Depth Not available.
6:32 AM 4:46 PM
Waxing Crescent, 39% visible
SPECI KNSE 060647Z AUTO 00000KT 1SM -RA BR VV002 16/16 A2968 RMK AO2 RAB43 T01610161 PNO $

10-Day Weather Forecast

Almanac

Astronomy

Dec. 06, 2016 Rise Set
Actual Time
Civil Twilight
Nautical Twilight
Astronomical Twilight
Moon
Length of Visible Light
Length of Day
Tomorrow will be .
, % of the Moon is Illuminated

Today's Extremes

State Highs State Lows

Community

WunderPhotos

Upload Photos

1,955,932 photos uploaded!

WunderBlog® & News

Nearby

Air Quality

  Air Quality AQ Index Pollutant
Not available.

Snow Depth

Station Depth Elevation

Earthquake Activity

City Distance Mag. Time & Date
Minimum magnitude displayed is 2.5.

Coastal Water Temperatures

Place Temperature

Stations

Nearby Weather Stations

Station Location Temp. Windchill Dew Point Humidity Wind Precip. Elev Updated Type
                   

Watches & Warnings

There are currently no watches in effect.